Time;durP1;ratioP1;P1;durP2;ratioP2;P2;SDS_P1;SDS_P2;PMS_P1;PMS_P2;Temp;Humidity;BMP_temperature;BMP_pressure;BME280_temperature;BME280_humidity;BME280_pressure;Samples;Min_cycle;Max_cycle;Signal;HPM_P1;HPM_P2
2022/01/31 00:00:30;;;;;;;9.18;2.83;;;5.60;99.90;;;5.37;68.69;101255.28;5242428;28;20139;-71
2022/01/31 00:03:02;;;;;;;12.85;3.03;;;5.60;99.90;;;5.34;68.58;101243.81;5234659;28;20135;-71
2022/01/31 00:05:34;;;;;;;9.45;3.13;;;5.60;99.90;;;5.31;68.71;101223.84;5242494;28;20045;-73
2022/01/31 00:08:06;;;;;;;5.90;2.40;;;5.50;99.90;;;5.34;69.34;101205.94;5238410;28;20049;-72
2022/01/31 00:10:39;;;;;;;8.50;2.53;;;5.50;99.90;;;5.33;69.13;101186.06;5245899;28;20057;-71
2022/01/31 00:13:17;;;;;;;9.07;2.72;;;5.50;99.90;;;5.26;69.19;101170.09;5238312;28;20056;-71
2022/01/31 00:15:55;;;;;;;7.85;2.22;;;5.40;99.90;;;5.21;69.21;101153.38;5237200;28;20614;-72
2022/01/31 00:18:27;;;;;;;6.97;2.55;;;5.40;99.90;;;5.18;69.34;101144.66;5242421;28;20506;-71
2022/01/31 00:20:59;;;;;;;8.25;2.42;;;5.40;99.90;;;5.20;70.04;101136.09;5241250;28;20542;-71
2022/01/31 00:23:31;;;;;;;8.13;3.08;;;5.40;99.90;;;5.12;69.76;101108.09;5236338;28;20053;-71
2022/01/31 00:26:03;;;;;;;6.57;2.47;;;5.30;99.90;;;5.07;69.96;101104.31;5238672;28;20052;-71
2022/01/31 00:28:35;;;;;;;8.98;2.65;;;5.30;99.90;;;5.04;69.89;101104.16;5243169;28;20051;-71
2022/01/31 00:31:08;;;;;;;7.55;2.22;;;5.30;99.90;;;5.05;69.98;101086.97;5246246;28;20044;-71
2022/01/31 00:33:40;;;;;;;11.43;2.60;;;5.20;99.90;;;5.00;69.84;101081.50;5246340;28;20047;-71
2022/01/31 00:36:12;;;;;;;11.35;3.00;;;5.30;99.90;;;5.00;70.21;101073.75;5246352;28;20048;-71
2022/01/31 00:38:44;;;;;;;7.03;2.28;;;5.30;99.90;;;5.00;70.94;101060.81;5245517;28;20064;-71
2022/01/31 00:41:16;;;;;;;13.82;2.90;;;5.20;99.90;;;5.03;70.94;101050.69;5245753;28;20048;-72
2022/01/31 00:43:58;;;;;;;10.38;2.95;;;5.30;99.90;;;5.06;70.68;101019.88;5245741;28;20045;-71
2022/01/31 00:46:38;;;;;;;9.50;2.55;;;5.30;99.90;;;5.05;70.31;101017.19;5245566;28;20055;-70
2022/01/31 00:49:17;;;;;;;6.10;2.55;;;5.30;99.90;;;5.04;70.46;101011.13;5245649;28;20048;-72
2022/01/31 00:51:49;;;;;;;8.00;2.55;;;5.20;99.90;;;5.05;70.88;101002.56;5246233;28;20474;-71
2022/01/31 00:54:22;;;;;;;9.70;2.40;;;5.30;99.90;;;5.10;70.01;100998.59;5245295;28;20412;-71
2022/01/31 00:56:55;;;;;;;7.53;2.30;;;5.20;99.90;;;5.08;70.14;100987.25;5245632;28;20475;-72
2022/01/31 00:59:27;;;;;;;6.45;2.42;;;5.30;99.90;;;5.09;70.69;100998.50;5245443;28;20055;-71
2022/01/31 01:02:00;;;;;;;9.55;2.15;;;5.30;99.90;;;5.10;70.79;100993.41;5245586;28;20494;-71
2022/01/31 01:04:32;;;;;;;9.77;2.50;;;5.30;99.90;;;5.09;70.45;100978.72;5245865;28;20051;-71
2022/01/31 01:07:04;;;;;;;9.57;2.47;;;5.30;99.90;;;5.15;70.75;100988.50;5245620;28;20048;-71
2022/01/31 01:09:37;;;;;;;6.47;2.20;;;5.30;99.90;;;5.20;70.66;100973.28;5245990;28;20049;-70
2022/01/31 01:12:10;;;;;;;9.50;2.03;;;5.30;99.90;;;5.22;70.39;100976.88;5245756;28;20493;-71
2022/01/31 01:14:45;;;;;;;6.70;2.03;;;5.40;99.90;;;5.24;70.72;100964.91;5248698;28;20068;-71
2022/01/31 01:17:19;;;;;;;8.13;2.40;;;5.40;99.90;;;5.28;70.57;100959.09;5242225;28;20056;-71
2022/01/31 01:19:51;;;;;;;5.90;2.10;;;5.40;99.90;;;5.32;70.40;100945.56;5235419;28;20545;-71
2022/01/31 01:22:23;;;;;;;12.40;2.35;;;5.40;99.90;;;5.33;70.27;100929.25;5246884;28;20051;-71
2022/01/31 01:24:55;;;;;;;7.35;2.40;;;5.50;99.90;;;5.34;70.26;100920.69;5249372;28;20059;-70
2022/01/31 01:27:27;;;;;;;6.47;1.98;;;5.50;99.90;;;5.37;70.19;100926.06;5249746;28;20067;-71
2022/01/31 01:29:59;;;;;;;8.15;2.10;;;5.50;99.90;;;5.39;70.50;100903.75;5249557;28;20060;-72
2022/01/31 01:32:41;;;;;;;9.93;2.67;;;5.50;99.90;;;5.37;70.48;100905.38;5249924;28;20147;-71
2022/01/31 01:35:14;;;;;;;4.95;2.00;;;5.50;99.90;;;5.38;70.11;100889.06;5249482;28;20139;-71
2022/01/31 01:37:47;;;;;;;8.23;2.70;;;5.50;99.90;;;5.37;70.38;100871.75;5249924;28;20417;-71
2022/01/31 01:40:19;;;;;;;7.10;2.13;;;5.50;99.90;;;5.39;70.25;100870.16;5246506;28;20053;-72
2022/01/31 01:42:51;;;;;;;11.55;2.60;;;5.50;99.90;;;5.38;70.90;100866.66;5238796;28;20059;-71
2022/01/31 01:45:25;;;;;;;10.52;2.20;;;5.50;99.90;;;5.41;70.66;100858.19;5242326;28;20068;-70
2022/01/31 01:47:58;;;;;;;6.38;2.22;;;5.50;99.90;;;5.40;71.14;100846.94;5241407;28;20473;-71
2022/01/31 01:50:30;;;;;;;7.28;2.58;;;5.50;99.90;;;5.43;71.16;100830.75;5249191;28;20045;-70
2022/01/31 01:53:04;;;;;;;7.55;1.73;;;5.60;99.90;;;5.48;71.13;100798.28;5249054;28;20478;-71
2022/01/31 01:55:36;;;;;;;8.32;2.33;;;5.60;99.90;;;5.44;71.85;100785.97;5248509;28;20049;-71
2022/01/31 01:58:15;;;;;;;4.57;1.80;;;5.60;99.90;;;5.56;72.57;100762.50;5248553;28;20136;-71
2022/01/31 02:00:58;;;;;;;6.70;1.80;;;5.60;99.90;;;5.56;73.03;100758.22;5248613;28;20059;-70
2022/01/31 02:03:35;;;;;;;10.60;2.10;;;5.70;99.90;;;5.55;73.51;100733.16;5248588;28;20045;-70
2022/01/31 02:06:09;;;;;;;7.50;2.38;;;5.70;99.90;;;5.58;73.19;100722.97;5234218;28;20044;-71
2022/01/31 02:08:44;;;;;;;5.03;1.98;;;5.70;99.90;;;5.61;73.42;100706.75;5246162;28;20044;-70
2022/01/31 02:11:20;;;;;;;12.52;2.25;;;5.70;99.90;;;5.57;73.56;100690.16;5249188;28;20048;-71
2022/01/31 02:13:52;;;;;;;7.10;1.90;;;5.80;99.90;;;5.59;73.47;100675.63;5248515;28;20052;-71
2022/01/31 02:16:24;;;;;;;11.13;2.10;;;5.80;99.90;;;5.58;73.24;100670.38;5242491;28;20055;-71
2022/01/31 02:18:57;;;;;;;8.90;2.38;;;5.80;99.90;;;5.62;73.79;100659.38;5247489;28;20126;-71
2022/01/31 02:21:31;;;;;;;8.13;2.25;;;5.80;99.90;;;5.65;73.81;100647.50;5248317;28;20060;-71
2022/01/31 02:24:03;;;;;;;12.98;2.33;;;5.80;99.90;;;5.68;73.87;100641.63;5248037;28;20055;-71
2022/01/31 02:26:35;;;;;;;8.50;2.53;;;5.80;99.90;;;5.68;73.16;100632.16;5246503;28;20055;-70
2022/01/31 02:29:11;;;;;;;8.73;2.45;;;5.80;99.90;;;5.68;73.49;100626.97;5230330;28;20045;-71
2022/01/31 02:31:47;;;;;;;9.70;2.33;;;5.80;99.90;;;5.66;73.17;100613.06;5236819;28;20080;-70
2022/01/31 02:34:19;;;;;;;6.25;2.03;;;5.80;99.90;;;5.68;73.03;100595.94;5242474;28;20044;-70
2022/01/31 02:36:52;;;;;;;8.30;1.63;;;5.80;99.90;;;5.65;73.20;100585.44;5240848;22;20639;-72
2022/01/31 02:39:24;;;;;;;8.77;2.90;;;5.80;99.90;;;5.64;73.24;100568.13;5203860;28;20057;-72
2022/01/31 02:41:56;;;;;;;7.55;2.00;;;5.80;99.90;;;5.69;73.49;100555.44;5204319;28;20045;-72
2022/01/31 02:44:28;;;;;;;5.30;2.03;;;5.90;99.90;;;5.85;73.85;100541.56;5205462;28;20045;-72
2022/01/31 02:47:04;;;;;;;3.08;1.33;;;5.90;99.90;;;5.88;74.31;100531.41;5206997;28;20045;-72
2022/01/31 02:49:45;;;;;;;7.97;1.65;;;6.00;99.90;;;5.91;74.92;100516.94;5207336;28;20169;-72
2022/01/31 02:52:19;;;;;;;6.68;1.85;;;6.00;99.90;;;6.02;73.55;100514.00;5207340;28;20053;-72
2022/01/31 02:54:51;;;;;;;7.20;1.60;;;6.10;99.90;;;6.08;73.54;100520.34;5203588;28;20048;-72
2022/01/31 02:57:24;;;;;;;3.97;1.83;;;6.10;99.90;;;6.06;73.38;100511.59;5206780;28;20364;-71
2022/01/31 02:59:56;;;;;;;9.18;1.92;;;6.10;99.90;;;6.15;73.33;100499.13;5203682;28;20513;-73
2022/01/31 03:02:28;;;;;;;3.08;1.55;;;6.20;99.90;;;6.16;74.18;100495.72;5203761;28;20050;-72
2022/01/31 03:05:00;;;;;;;8.27;1.73;;;6.20;99.90;;;6.15;74.87;100501.72;5206199;28;20056;-73
2022/01/31 03:07:34;;;;;;;4.28;2.08;;;6.20;99.90;;;6.09;75.79;100485.88;5206694;28;20045;-72
2022/01/31 03:10:06;;;;;;;8.18;1.70;;;6.20;99.90;;;6.12;77.13;100486.00;5206465;28;20053;-72
2022/01/31 03:12:38;;;;;;;10.50;1.95;;;6.20;99.90;;;6.09;77.89;100470.34;5206965;28;20083;-72
2022/01/31 03:15:11;;;;;;;6.72;1.20;;;6.20;99.90;;;6.07;79.17;100465.94;5196865;28;20512;-71
2022/01/31 03:17:47;;;;;;;6.03;1.42;;;6.20;99.90;;;6.08;79.76;100452.19;5205546;28;20048;-72
2022/01/31 03:20:21;;;;;;;9.23;1.67;;;6.20;99.90;;;6.05;80.30;100442.56;5205449;28;20051;-72
2022/01/31 03:22:54;;;;;;;7.03;1.70;;;6.20;99.90;;;6.03;80.70;100446.78;5205878;28;20045;-71
2022/01/31 03:25:27;;;;;;;4.07;1.25;;;6.20;99.90;;;5.99;81.79;100442.25;5202556;28;20408;-72
2022/01/31 03:27:59;;;;;;;4.38;1.50;;;6.20;99.90;;;5.99;82.39;100426.72;5205189;28;20076;-71
2022/01/31 03:30:31;;;;;;;3.67;1.88;;;6.10;99.90;;;6.03;82.93;100432.94;5205754;28;20052;-71
2022/01/31 03:33:03;;;;;;;6.10;1.63;;;6.20;99.90;;;6.00;83.56;100423.34;5205812;28;20037;-72
2022/01/31 03:35:35;;;;;;;8.25;1.85;;;6.10;99.90;;;5.98;84.71;100419.78;5204145;28;20058;-72
2022/01/31 03:38:08;;;;;;;8.90;1.85;;;6.10;99.90;;;5.93;85.09;100410.91;5204965;28;20413;-71
2022/01/31 03:40:40;;;;;;;4.57;1.30;;;6.10;99.90;;;5.87;85.46;100400.28;5206714;28;20512;-75
2022/01/31 03:43:12;;;;;;;5.32;1.33;;;6.10;99.90;;;5.88;86.29;100392.59;5206144;28;20060;-72
2022/01/31 03:45:44;;;;;;;3.22;1.63;;;6.00;99.90;;;5.90;86.53;100395.25;5205773;28;20049;-73
2022/01/31 03:48:16;;;;;;;4.80;1.50;;;6.00;99.90;;;5.85;86.66;100376.91;5206201;28;20053;-73
2022/01/31 03:50:48;;;;;;;3.22;1.42;;;6.00;99.90;;;5.84;87.39;100374.25;5206133;28;20152;-73
2022/01/31 03:53:21;;;;;;;2.00;1.52;;;6.00;99.90;;;5.83;88.38;100368.19;5205918;28;20494;-72
2022/01/31 03:55:53;;;;;;;6.57;1.73;;;6.00;99.90;;;5.85;88.75;100365.66;5205327;28;20390;-71
2022/01/31 03:58:26;;;;;;;2.47;1.23;;;6.00;99.90;;;5.87;88.69;100356.31;5206165;28;20497;-71
2022/01/31 04:00:58;;;;;;;4.50;1.63;;;6.00;99.90;;;5.88;88.65;100361.53;5205372;28;20053;-71
2022/01/31 04:03:30;;;;;;;2.55;1.25;;;6.00;99.90;;;5.87;88.65;100359.78;5205723;28;20406;-72
2022/01/31 04:06:02;;;;;;;7.43;1.30;;;6.00;99.90;;;5.87;89.64;100364.06;5199536;28;20080;-71
2022/01/31 04:08:35;;;;;;;3.85;1.25;;;6.00;99.90;;;5.85;89.75;100352.75;5205443;28;20059;-71
2022/01/31 04:11:10;;;;;;;5.32;1.50;;;6.00;99.90;;;5.86;89.98;100352.81;5201777;28;20053;-73
2022/01/31 04:13:42;;;;;;;4.13;1.27;;;6.00;99.90;;;5.86;90.40;100346.75;5204938;28;20148;-71
2022/01/31 04:16:13;;;;;;;3.45;1.25;;;6.00;99.90;;;5.88;89.84;100339.97;5205296;28;20487;-71
2022/01/31 04:18:45;;;;;;;6.03;1.50;;;6.00;99.90;;;5.87;90.51;100338.19;5205024;28;20049;-70
2022/01/31 04:21:17;;;;;;;4.32;1.50;;;6.00;99.90;;;5.87;90.64;100343.38;5205392;28;20140;-71
2022/01/31 04:23:51;;;;;;;2.35;0.90;;;6.00;99.90;;;5.86;90.73;100336.41;5204709;28;20053;-70
2022/01/31 04:26:23;;;;;;;3.10;1.10;;;6.00;99.90;;;5.86;91.42;100328.63;5205465;28;20045;-72
2022/01/31 04:29:04;;;;;;;5.57;1.30;;;6.00;99.90;;;5.88;90.92;100319.28;5205412;28;20056;-70
2022/01/31 04:31:40;;;;;;;2.13;0.68;;;6.00;99.90;;;5.87;91.56;100314.91;5204945;28;20046;-72
2022/01/31 04:34:12;;;;;;;1.77;0.80;;;6.00;99.90;;;5.88;91.53;100316.69;5204588;28;20045;-72
2022/01/31 04:36:44;;;;;;;5.22;1.02;;;6.00;99.90;;;5.89;92.07;100321.03;5204724;28;20053;-71
2022/01/31 04:39:19;;;;;;;2.05;0.95;;;6.00;99.90;;;5.90;92.13;100322.81;5205374;28;20076;-71
2022/01/31 04:41:51;;;;;;;0.82;0.63;;;6.00;99.90;;;5.90;92.31;100309.88;5204931;28;20100;-72
2022/01/31 04:44:24;;;;;;;3.08;0.65;;;6.00;99.90;;;5.90;92.30;100305.56;5204132;28;20497;-71
2022/01/31 04:46:56;;;;;;;3.95;1.00;;;6.00;99.90;;;5.87;92.35;100291.63;5205098;28;20057;-72
2022/01/31 04:49:28;;;;;;;1.83;0.60;;;6.00;99.90;;;5.89;93.07;100292.56;5204390;28;20053;-71
2022/01/31 04:52:00;;;;;;;1.25;0.80;;;6.00;99.90;;;5.86;92.98;100298.47;5204702;28;20055;-71
2022/01/31 04:54:34;;;;;;;2.92;1.00;;;6.00;99.90;;;5.85;93.18;100295.84;5204283;28;20128;-71
2022/01/31 04:57:06;;;;;;;3.20;0.75;;;6.00;99.90;;;5.83;93.37;100290.59;5204366;28;20049;-73
2022/01/31 04:59:43;;;;;;;1.27;0.95;;;6.00;99.90;;;5.77;94.01;100297.19;5205101;28;20076;-71
2022/01/31 05:02:15;;;;;;;3.67;1.52;;;6.00;99.90;;;5.70;94.92;100293.44;5204712;28;20053;-71
2022/01/31 05:04:47;;;;;;;2.58;1.10;;;5.90;99.90;;;5.71;95.41;100280.56;5204182;28;20052;-71
2022/01/31 05:07:19;;;;;;;2.28;1.73;;;5.90;99.90;;;5.70;95.38;100273.63;5204646;28;20053;-71
2022/01/31 05:09:52;;;;;;;5.93;1.73;;;5.90;99.90;;;5.67;96.39;100273.50;5204445;28;20136;-72
2022/01/31 05:12:25;;;;;;;1.80;1.30;;;5.80;99.90;;;5.64;96.96;100268.19;5204878;28;20410;-72
2022/01/31 05:14:57;;;;;;;2.88;2.00;;;5.80;99.90;;;5.62;96.92;100275.00;5204133;28;20046;-71
2022/01/31 05:17:29;;;;;;;4.35;1.63;;;5.80;99.90;;;5.65;97.37;100267.34;5204566;28;20045;-71
2022/01/31 05:20:01;;;;;;;1.95;1.60;;;5.80;99.90;;;5.66;97.79;100271.72;5204227;28;20383;-72
2022/01/31 05:22:33;;;;;;;5.03;2.15;;;5.80;99.90;;;5.73;97.83;100252.19;5204638;28;20520;-71
2022/01/31 05:25:08;;;;;;;4.70;1.95;;;5.90;99.90;;;5.82;97.60;100262.09;5204071;28;20046;-72
2022/01/31 05:27:40;;;;;;;7.75;2.20;;;5.90;99.90;;;5.83;97.98;100254.38;5204440;28;20053;-71
2022/01/31 05:30:12;;;;;;;4.38;1.95;;;6.00;99.90;;;5.86;98.48;100238.97;5204489;28;20052;-71
2022/01/31 05:32:44;;;;;;;4.53;2.28;;;6.00;99.90;;;5.87;98.74;100240.78;5204067;28;20057;-71
2022/01/31 05:35:17;;;;;;;7.40;2.65;;;6.00;99.90;;;5.96;98.45;100235.16;5204139;28;20394;-71
2022/01/31 05:37:49;;;;;;;7.60;2.45;;;6.00;99.90;;;5.97;98.88;100226.56;5204323;28;20049;-71
2022/01/31 05:40:22;;;;;;;5.72;2.45;;;6.10;99.90;;;6.02;98.71;100219.91;5204534;28;20056;-72
2022/01/31 05:42:54;;;;;;;10.80;3.15;;;6.20;99.90;;;6.04;98.67;100228.59;5204353;28;20059;-72
2022/01/31 05:45:26;;;;;;;8.85;2.33;;;6.20;99.90;;;6.02;98.78;100214.72;5204036;28;20425;-71
2022/01/31 05:47:59;;;;;;;6.57;2.45;;;6.20;99.90;;;6.08;98.71;100209.81;5204275;28;20045;-72
2022/01/31 05:50:31;;;;;;;3.58;1.98;;;6.20;99.90;;;6.10;98.53;100213.34;5198335;28;20054;-72
2022/01/31 05:53:03;;;;;;;5.30;2.25;;;6.20;99.90;;;6.10;97.99;100223.69;5203854;28;20059;-71
2022/01/31 05:55:37;;;;;;;6.72;1.83;;;6.30;99.90;;;6.12;97.44;100216.00;5203414;28;20046;-72
2022/01/31 05:58:10;;;;;;;9.82;2.28;;;6.30;99.90;;;6.12;97.10;100218.59;5204205;28;20053;-71
2022/01/31 06:00:42;;;;;;;5.80;2.15;;;6.30;99.90;;;6.11;97.16;100225.47;5206305;28;20053;-71
2022/01/31 06:03:14;;;;;;;8.88;1.88;;;6.30;99.90;;;6.15;96.91;100214.44;5208124;28;20501;-71
2022/01/31 06:05:46;;;;;;;5.35;1.83;;;6.30;99.90;;;6.27;96.35;100223.56;5207515;28;20052;-70
2022/01/31 06:08:18;;;;;;;4.38;1.75;;;6.40;99.90;;;6.25;96.55;100226.06;5207962;28;20053;-73
2022/01/31 06:10:51;;;;;;;7.20;2.42;;;6.40;99.90;;;6.31;95.76;100228.03;5207777;28;20059;-71
2022/01/31 06:13:27;;;;;;;3.92;1.73;;;6.40;99.90;;;6.19;95.86;100224.13;5207715;28;20461;-71
2022/01/31 06:15:59;;;;;;;5.57;2.28;;;6.40;99.90;;;6.20;96.22;100215.53;5207701;28;20123;-71
2022/01/31 06:18:31;;;;;;;13.98;2.55;;;6.40;99.90;;;6.29;96.21;100208.97;5207368;28;20060;-71
2022/01/31 06:21:03;;;;;;;4.38;2.15;;;6.40;99.90;;;6.29;95.53;100208.97;5207871;28;20049;-72
2022/01/31 06:23:35;;;;;;;8.93;2.30;;;6.50;99.90;;;6.32;95.40;100209.97;5207276;28;20045;-71
2022/01/31 06:26:09;;;;;;;11.77;2.50;;;6.50;99.90;;;6.33;94.73;100205.72;5207181;28;20075;-71
2022/01/31 06:28:41;;;;;;;7.18;1.98;;;6.50;99.90;;;6.33;94.49;100209.19;5207504;28;20049;-70
2022/01/31 06:31:13;;;;;;;6.50;1.92;;;6.50;99.90;;;6.34;93.85;100207.47;5207427;28;20061;-72
2022/01/31 06:33:45;;;;;;;9.20;2.30;;;6.50;99.90;;;6.31;93.40;100208.19;5207161;28;20049;-71
2022/01/31 06:36:17;;;;;;;10.82;2.08;;;6.50;99.90;;;6.33;93.11;100200.53;5207488;28;20059;-72
2022/01/31 06:38:49;;;;;;;5.22;1.95;;;6.50;99.90;;;6.38;92.57;100193.81;5207086;28;20456;-72
2022/01/31 06:41:23;;;;;;;4.78;1.40;;;6.50;99.90;;;6.41;90.10;100204.31;5207140;28;20409;-71
2022/01/31 06:43:55;;;;;;;3.22;1.60;;;6.60;99.90;;;6.41;90.25;100192.25;5206632;28;20049;-71
2022/01/31 06:46:27;;;;;;;10.30;1.60;;;6.50;99.90;;;6.44;90.30;100194.06;5207251;28;20085;-74
2022/01/31 06:48:59;;;;;;;6.97;1.42;;;6.60;99.90;;;6.48;89.75;100185.63;5207290;28;20049;-72
2022/01/31 06:51:31;;;;;;;4.35;1.63;;;6.60;99.90;;;6.39;90.29;100190.41;5207000;28;20049;-71
2022/01/31 06:54:05;;;;;;;8.75;1.70;;;6.60;99.90;;;6.38;90.08;100188.63;5206653;28;20041;-72
2022/01/31 06:56:40;;;;;;;5.82;1.75;;;6.60;99.90;;;6.40;90.03;100187.91;5207036;28;20057;-72
2022/01/31 06:59:12;;;;;;;6.80;2.10;;;6.60;99.90;;;6.49;89.31;100171.84;5207011;28;20527;-71
2022/01/31 07:01:44;;;;;;;8.73;1.83;;;6.60;99.90;;;6.47;88.51;100183.84;5207038;28;20049;-72
2022/01/31 07:04:16;;;;;;;4.45;1.60;;;6.60;99.90;;;6.45;88.76;100177.72;5206173;28;20050;-71
2022/01/31 07:06:48;;;;;;;7.35;1.80;;;6.60;99.90;;;6.49;88.06;100167.56;5206586;28;20425;-71
2022/01/31 07:09:21;;;;;;;6.80;1.70;;;6.60;99.90;;;6.51;88.41;100170.19;5206945;28;20636;-71
2022/01/31 07:11:59;;;;;;;4.38;1.55;;;6.60;99.90;;;6.50;88.65;100164.13;5206150;28;20049;-72
2022/01/31 07:14:31;;;;;;;9.82;1.95;;;6.60;99.90;;;6.47;88.78;100168.31;5206265;28;20056;-71
2022/01/31 07:17:06;;;;;;;9.63;2.15;;;6.60;99.90;;;6.47;88.96;100171.78;5206370;28;20059;-72
2022/01/31 07:19:39;;;;;;;9.55;2.10;;;6.60;99.90;;;6.53;87.99;100158.22;5206885;28;20406;-72
2022/01/31 07:22:14;;;;;;;8.00;2.42;;;6.60;99.90;;;6.49;88.85;100171.84;5206697;28;20079;-72
2022/01/31 07:24:50;;;;;;;7.18;1.70;;;6.60;99.90;;;6.46;89.15;100161.38;5206005;28;20073;-71
2022/01/31 07:27:24;;;;;;;9.32;2.00;;;6.60;99.90;;;6.43;90.07;100153.47;5206300;28;20060;-71
2022/01/31 07:29:56;;;;;;;5.57;1.80;;;6.60;99.90;;;6.42;89.79;100154.31;5206515;28;20049;-71
2022/01/31 07:32:29;;;;;;;3.00;1.63;;;6.60;99.90;;;6.40;90.43;100163.72;5206436;28;20045;-72
2022/01/31 07:35:01;;;;;;;6.63;1.85;;;6.50;99.90;;;6.34;90.86;100160.88;5205711;28;20055;-72
2022/01/31 07:37:35;;;;;;;6.25;1.83;;;6.50;99.90;;;6.29;91.53;100170.16;5205618;28;20399;-70
2022/01/31 07:40:09;;;;;;;5.85;2.35;;;6.40;99.90;;;6.24;91.74;100169.94;5206090;28;20053;-71
2022/01/31 07:42:42;;;;;;;9.80;2.58;;;6.40;99.90;;;6.19;92.17;100176.63;5205883;28;20080;-71
2022/01/31 07:45:15;;;;;;;8.82;2.60;;;6.30;99.90;;;6.10;93.62;100190.06;5205328;28;20490;-71
2022/01/31 07:47:47;;;;;;;6.20;2.13;;;6.30;99.90;;;6.03;94.29;100200.09;5205566;28;20064;-71
2022/01/31 07:50:19;;;;;;;8.10;1.98;;;6.20;99.90;;;5.94;95.41;100208.34;5206021;28;20049;-71
2022/01/31 07:52:51;;;;;;;8.00;2.05;;;6.20;99.90;;;5.88;96.30;100215.81;5205491;28;20045;-71
2022/01/31 07:55:23;;;;;;;8.00;1.77;;;6.10;99.90;;;5.83;96.21;100207.81;5205064;28;20042;-71
2022/01/31 07:57:56;;;;;;;5.70;1.77;;;6.10;99.90;;;5.80;96.62;100207.66;5205743;28;20546;-71
2022/01/31 08:00:29;;;;;;;5.10;1.83;;;6.00;99.90;;;5.71;97.90;100197.81;5205900;28;20072;-71
2022/01/31 08:03:01;;;;;;;9.85;1.52;;;5.90;99.90;;;5.60;98.09;100214.53;5205606;28;20049;-71
2022/01/31 08:05:33;;;;;;;6.82;1.48;;;5.90;99.90;;;5.62;98.65;100194.84;5205234;28;20497;-71
2022/01/31 08:08:06;;;;;;;3.67;1.58;;;5.80;99.90;;;5.51;97.69;100193.44;5205501;28;20529;-71
2022/01/31 08:10:39;;;;;;;8.40;2.08;;;5.80;99.90;;;5.58;98.06;100192.03;5205388;28;20050;-72
2022/01/31 08:13:13;;;;;;;4.28;1.65;;;5.80;99.90;;;5.58;98.10;100192.03;5205606;28;20104;-71
2022/01/31 08:15:48;;;;;;;4.75;1.52;;;5.80;99.90;;;5.57;98.58;100183.38;5204986;28;20552;-71
2022/01/31 08:18:20;;;;;;;4.20;1.50;;;5.80;99.90;;;5.62;98.70;100186.19;5205908;28;20049;-72
2022/01/31 08:20:52;;;;;;;6.07;1.73;;;5.80;99.90;;;5.62;98.54;100183.59;5205111;28;20049;-71
2022/01/31 08:23:24;;;;;;;3.90;1.65;;;5.80;99.90;;;5.69;98.36;100173.59;5204274;28;20049;-71
2022/01/31 08:25:57;;;;;;;8.77;2.00;;;5.80;99.90;;;5.65;98.26;100184.59;5204687;28;20045;-70
2022/01/31 08:28:36;;;;;;;8.35;1.55;;;5.80;99.90;;;5.65;97.61;100166.50;5205010;28;20052;-72
2022/01/31 08:31:14;;;;;;;7.40;1.75;;;5.90;99.90;;;5.76;97.70;100173.88;5205441;28;20493;-71
2022/01/31 08:33:50;;;;;;;7.28;1.33;;;5.90;99.90;;;5.81;97.25;100174.97;5201621;28;20049;-71
2022/01/31 08:36:22;;;;;;;9.63;1.73;;;5.90;99.90;;;5.80;97.07;100173.16;5285161;23;20021;-75
2022/01/31 08:38:55;;;;;;;7.10;2.20;;;5.90;99.90;;;5.79;97.01;100177.47;5205298;28;20048;-74
2022/01/31 08:41:27;;;;;;;6.38;2.25;;;5.90;99.90;;;5.85;97.15;100174.25;5212529;28;20485;-74
2022/01/31 08:44:01;;;;;;;8.18;2.72;;;6.00;99.90;;;5.91;97.05;100174.56;5204361;28;20049;-74
2022/01/31 08:46:35;;;;;;;6.65;2.03;;;6.00;99.90;;;6.16;98.08;100176.50;5205848;28;20045;-75
2022/01/31 08:49:07;;;;;;;8.13;1.83;;;6.20;99.90;;;6.12;96.44;100172.88;5206254;28;20474;-74
2022/01/31 08:51:39;;;;;;;5.60;1.73;;;6.30;99.90;;;6.51;98.89;100155.53;5205635;28;20058;-67
2022/01/31 08:54:13;;;;;;;5.30;1.40;;;6.60;99.90;;;7.50;98.77;100187.09;5205314;28;20056;-67
2022/01/31 08:56:45;;;;;;;4.75;1.30;;;7.50;99.90;;;7.53;90.04;100178.53;5204485;28;20055;-73
2022/01/31 08:59:23;;;;;;;4.38;1.70;;;7.70;99.90;;;7.18;87.95;100164.25;5204347;28;20058;-72
2022/01/31 09:02:05;;;;;;;6.85;1.90;;;7.60;99.90;;;6.85;87.42;100169.00;5204832;28;20088;-73
2022/01/31 09:04:47;;;;;;;5.60;1.48;;;7.20;99.90;;;6.57;89.06;100173.03;5204090;28;20049;-73
2022/01/31 09:07:21;;;;;;;5.35;1.17;;;6.90;99.90;;;6.39;90.16;100155.06;5204423;28;20053;-73
2022/01/31 09:09:54;;;;;;;6.00;1.80;;;6.70;99.90;;;6.29;90.92;100152.03;5204895;28;20056;-73
2022/01/31 09:12:30;;;;;;;6.97;1.85;;;6.60;99.90;;;6.20;91.14;100176.72;5205047;28;20522;-73
2022/01/31 09:15:05;;;;;;;3.65;1.13;;;6.50;99.90;;;6.08;92.20;100163.25;5203990;28;20136;-73
2022/01/31 09:17:37;;;;;;;3.95;1.55;;;6.40;99.90;;;6.04;92.92;100169.09;5204491;28;20049;-73
2022/01/31 09:20:11;;;;;;;6.53;1.23;;;6.30;99.90;;;5.97;93.62;100170.53;5204516;28;20060;-72
2022/01/31 09:22:43;;;;;;;3.58;1.42;;;6.20;99.90;;;6.01;93.16;100145.69;5204249;28;20046;-73
2022/01/31 09:25:16;;;;;;;5.50;1.77;;;6.20;99.90;;;5.98;93.46;100146.44;5193928;28;20049;-72
2022/01/31 09:27:48;;;;;;;6.20;1.35;;;6.10;99.90;;;5.98;93.70;100159.38;5199843;28;20057;-71
2022/01/31 09:30:22;;;;;;;3.70;1.27;;;6.10;99.90;;;5.97;93.98;100155.00;5198168;28;20732;-73
2022/01/31 09:32:54;;;;;;;5.18;1.80;;;6.10;99.90;;;5.98;94.16;100151.59;5203355;28;20049;-72
2022/01/31 09:35:27;;;;;;;5.07;1.42;;;6.10;99.90;;;5.90;93.98;100157.25;5207124;28;20046;-72
2022/01/31 09:37:58;;;;;;;6.28;1.40;;;6.10;99.90;;;5.82;95.24;100141.41;5192479;28;20045;-72
2022/01/31 09:40:31;;;;;;;6.43;1.27;;;6.00;99.90;;;5.85;94.86;100158.75;5195566;28;20422;-73
2022/01/31 09:43:24;;;;;;;2.83;1.08;;;6.00;99.90;;;5.78;95.24;100142.06;5207626;28;20049;-73
2022/01/31 09:46:14;;;;;;;8.70;1.58;;;6.00;99.90;;;5.78;95.70;100141.19;5207839;28;20041;-74
2022/01/31 09:48:49;;;;;;;4.68;1.33;;;6.00;99.90;;;5.77;95.24;100131.66;5208603;28;20045;-73
2022/01/31 09:51:24;;;;;;;8.60;1.52;;;5.90;99.90;;;5.74;95.22;100129.84;5208395;28;20049;-73
2022/01/31 09:53:59;;;;;;;6.85;1.60;;;5.90;99.90;;;5.78;94.69;100121.38;5208215;28;20401;-73
2022/01/31 09:56:33;;;;;;;7.88;1.75;;;5.90;99.90;;;5.72;95.08;100141.81;5208015;28;20387;-74
2022/01/31 09:59:08;;;;;;;4.43;1.33;;;5.90;99.90;;;5.73;95.90;100134.09;5208329;28;20134;-73
2022/01/31 10:01:46;;;;;;;7.82;1.60;;;5.90;99.90;;;5.83;96.02;100129.34;5208077;28;20135;-72
2022/01/31 10:04:20;;;;;;;5.90;1.85;;;6.00;99.90;;;5.80;95.45;100139.53;5196580;28;20414;-73
2022/01/31 10:06:54;;;;;;;9.32;1.33;;;6.00;99.90;;;5.78;96.01;100129.13;5207482;28;20056;-73
2022/01/31 10:09:30;;;;;;;3.72;2.28;;;5.90;99.90;;;5.93;96.34;100126.34;5208259;28;20049;-72
2022/01/31 10:12:08;;;;;;;12.13;2.67;;;6.00;99.90;;;5.88;95.55;100138.19;5208056;28;20049;-73
2022/01/31 10:17:35;;;;;;;8.40;1.88;;;6.00;99.90;;;5.77;96.14;100152.34;5203710;28;20100;-73
2022/01/31 10:20:11;;;;;;;4.85;1.83;;;5.90;99.90;;;5.80;96.61;100147.31;5205104;28;20053;-72
2022/01/31 10:22:43;;;;;;;;;;;5.90;99.90;;;5.71;96.66;100142.63;5206829;28;20049;-72
2022/01/31 10:25:20;;;;;;;7.65;1.75;;;5.90;99.90;;;5.84;96.28;100151.81;5204411;28;20481;-73
2022/01/31 10:27:54;;;;;;;6.40;1.80;;;5.90;99.90;;;5.81;95.89;100123.25;5203462;28;20502;-72
2022/01/31 10:30:29;;;;;;;5.47;2.10;;;5.90;99.90;;;5.77;95.75;100123.91;5207553;28;20390;-73
2022/01/31 10:33:02;;;;;;;3.13;2.00;;;5.90;99.90;;;5.72;95.17;100150.44;5207519;28;20075;-73
2022/01/31 10:35:35;;;;;;;4.57;2.08;;;5.90;99.90;;;5.76;95.61;100151.47;5207229;28;20045;-72
2022/01/31 10:38:11;;;;;;;9.10;1.38;;;5.90;99.90;;;5.78;95.88;100160.19;5207115;28;20053;-71
2022/01/31 10:52:31;;;;;;;10.32;2.47;;;5.80;99.90;;;5.58;97.29;100159.31;5186414;28;20052;-72
2022/01/31 10:55:16;;;;;;;7.60;0.95;;;5.80;99.90;;;5.68;97.45;100165.78;5185695;28;20041;-72
2022/01/31 10:58:03;;;;;;;10.45;1.80;;;5.80;99.90;;;5.57;97.46;100177.34;5185947;28;20066;-73
2022/01/31 11:00:36;;;;;;;4.63;1.73;;;5.80;99.90;;;5.54;97.90;100180.69;5186258;28;20054;-72
2022/01/31 11:03:31;;;;;;;6.45;1.15;;;5.70;99.90;;;5.49;98.38;100173.53;5185849;28;20050;-74
2022/01/31 11:06:09;;;;;;;5.90;1.85;;;5.60;99.90;;;5.55;98.81;100164.34;5185228;28;20046;-72